Elbella — 9HA2358 — position and weather

sailwx.info

Track history (hours):
 
Tides and Currents Weather Stations Pressure Air Temp Water Temp Dewpoint Dewpoint Depression Visibility Wind Speed Wind Dir Waves Ship Positions

Elbella

Last reported at 2017-Jun-28 15:29 UTC. Time now 2017-Jun-28 17:32 UTC.
Position N 31°07' E 122°17'.

Length 176 m; draft 9.6 m.

Type: Ship (hazmat cat A). MMSI: 248422000.

Date/timePositionNaut miles runAvg speedWind from/ knotsBaromVisibWave heightAir tempDewpointWater temp
2017-Jun-28 15:29N 31°07' E 122°17'611.9
2017-Jun-28 15:00N 31°10' E 122°12'713.0
2017-Jun-28 14:30N 31°14' E 122°05'1414.3
2017-Jun-28 13:30N 31°17' E 121°49'713.8
2017-Jun-28 13:00N 31°20' E 121°42'1 1.7
2017-Jun-28 12:25N 31°20' E 121°40'0 0.0
2017-Jun-28 11:58N 31°20' E 121°40'0 0.0
2017-Jun-28 11:28N 31°20' E 121°40'0 0.1
2017-Jun-28 10:58N 31°20' E 121°40'0 0.0
2017-Jun-28 10:28N 31°20' E 121°40'0 0.1
2017-Jun-28 09:58N 31°20' E 121°40'0 0.1
2017-Jun-28 09:22N 31°20' E 121°40'0 0.0
2017-Jun-28 08:58N 31°20' E 121°40'0 0.1
2017-Jun-28 08:28N 31°20' E 121°40'0 0.0
2017-Jun-28 07:49N 31°20' E 121°40'0 0.0
2017-Jun-28 07:19N 31°20' E 121°40'0 0.0
2017-Jun-28 06:58N 31°20' E 121°40'0 0.0
2017-Jun-28 06:28N 31°20' E 121°40'0 0.0
2017-Jun-28 05:58N 31°20' E 121°40'0 0.1
2017-Jun-28 05:28N 31°20' E 121°40'0 0.1
2017-Jun-28 04:52N 31°20' E 121°40'0 0.0
2017-Jun-28 04:28N 31°20' E 121°40'0 0.0
2017-Jun-28 03:46N 31°20' E 121°40'0 0.2
2017-Jun-28 03:28N 31°20' E 121°40'0 0.1
2017-Jun-28 02:46N 31°20' E 121°40'0 0.0
2017-Jun-28 02:28N 31°20' E 121°40'0 0.0
2017-Jun-28 01:55N 31°20' E 121°40'0 0.0
2017-Jun-28 01:28N 31°20' E 121°40'0 0.1
2017-Jun-28 01:01N 31°20' E 121°40'0 0.1
2017-Jun-28 00:30N 31°20' E 121°40'0 0.0
2017-Jun-28 00:00N 31°20' E 121°40'0 0.0
2017-Jun-27 23:30N 31°20' E 121°40'0 0.7
2017-Jun-27 23:01N 31°20' E 121°41'3 6.2
2017-Jun-27 22:31N 31°19' E 121°44'4 8.0
2017-Jun-27 22:01N 31°17' E 121°49'4 7.7
2017-Jun-27 21:31N 31°16' E 121°53'4 8.6
2017-Jun-27 21:01N 31°15' E 121°58'4 7.6
2017-Jun-27 20:30N 31°14' E 122°02'4 8.9
2017-Jun-27 20:00N 31°13' E 122°07'714.0
2017-Jun-27 19:30N 31°09' E 122°14'713.2
2017-Jun-27 19:00N 31°06' E 122°21'4 8.3
2017-Jun-27 18:29N 31°07' E 122°26'  
Track history (hours):
 
Tides and Currents Weather Stations Pressure Air Temp Water Temp Dewpoint Dewpoint Depression Visibility Wind Speed Wind Dir Waves Ship Positions

Elbella

Last reported at 2017-Jun-28 15:29 UTC. Time now 2017-Jun-28 17:32 UTC.
Position N 31°07' E 122°17'.

Length 176 m; draft 9.6 m.

Type: Ship (hazmat cat A). MMSI: 248422000.

Date/timePositionNaut miles runAvg speedWind from/ knotsBaromVisibWave heightAir tempDewpointWater temp
2017-Jun-28 15:29N 31°07' E 122°17'611.9
2017-Jun-28 15:00N 31°10' E 122°12'713.0
2017-Jun-28 14:30N 31°14' E 122°05'1414.3
2017-Jun-28 13:30N 31°17' E 121°49'713.8
2017-Jun-28 13:00N 31°20' E 121°42'1 1.7
2017-Jun-28 12:25N 31°20' E 121°40'0 0.0
2017-Jun-28 11:58N 31°20' E 121°40'0 0.0
2017-Jun-28 11:28N 31°20' E 121°40'0 0.1
2017-Jun-28 10:58N 31°20' E 121°40'0 0.0
2017-Jun-28 10:28N 31°20' E 121°40'0 0.1
2017-Jun-28 09:58N 31°20' E 121°40'0 0.1
2017-Jun-28 09:22N 31°20' E 121°40'0 0.0
2017-Jun-28 08:58N 31°20' E 121°40'0 0.1
2017-Jun-28 08:28N 31°20' E 121°40'0 0.0
2017-Jun-28 07:49N 31°20' E 121°40'0 0.0
2017-Jun-28 07:19N 31°20' E 121°40'0 0.0
2017-Jun-28 06:58N 31°20' E 121°40'0 0.0
2017-Jun-28 06:28N 31°20' E 121°40'0 0.0
2017-Jun-28 05:58N 31°20' E 121°40'0 0.1
2017-Jun-28 05:28N 31°20' E 121°40'0 0.1
2017-Jun-28 04:52N 31°20' E 121°40'0 0.0
2017-Jun-28 04:28N 31°20' E 121°40'0 0.0
2017-Jun-28 03:46N 31°20' E 121°40'0 0.2
2017-Jun-28 03:28N 31°20' E 121°40'0 0.1
2017-Jun-28 02:46N 31°20' E 121°40'0 0.0
2017-Jun-28 02:28N 31°20' E 121°40'0 0.0
2017-Jun-28 01:55N 31°20' E 121°40'0 0.0
2017-Jun-28 01:28N 31°20' E 121°40'0 0.1
2017-Jun-28 01:01N 31°20' E 121°40'0 0.1
2017-Jun-28 00:30N 31°20' E 121°40'0 0.0
2017-Jun-28 00:00N 31°20' E 121°40'0 0.0
2017-Jun-27 23:30N 31°20' E 121°40'0 0.7
2017-Jun-27 23:01N 31°20' E 121°41'3 6.2
2017-Jun-27 22:31N 31°19' E 121°44'4 8.0
2017-Jun-27 22:01N 31°17' E 121°49'4 7.7
2017-Jun-27 21:31N 31°16' E 121°53'4 8.6
2017-Jun-27 21:01N 31°15' E 121°58'4 7.6
2017-Jun-27 20:30N 31°14' E 122°02'4 8.9
2017-Jun-27 20:00N 31°13' E 122°07'714.0
2017-Jun-27 19:30N 31°09' E 122°14'713.2
2017-Jun-27 19:00N 31°06' E 122°21'4 8.3
2017-Jun-27 18:29N 31°07' E 122°26'  

Dump ship's entire track history